sensor_id;sensor_type;location;lat;lon;timestamp;P1;durP1;ratioP1;P2;durP2;ratioP2
76978;SDS011;65911;47.502;19.148;2023-11-19T00:02:45;6.90;;;3.40;;
76978;SDS011;65911;47.502;19.148;2023-11-19T00:05:47;7.17;;;3.73;;
76978;SDS011;65911;47.502;19.148;2023-11-19T00:08:50;6.28;;;3.55;;
76978;SDS011;65911;47.502;19.148;2023-11-19T00:11:52;6.15;;;3.88;;
76978;SDS011;65911;47.502;19.148;2023-11-19T00:14:56;6.70;;;4.07;;
76978;SDS011;65911;47.502;19.148;2023-11-19T00:17:58;6.95;;;3.97;;
76978;SDS011;65911;47.502;19.148;2023-11-19T00:21:03;6.30;;;4.18;;
76978;SDS011;65911;47.502;19.148;2023-11-19T00:24:05;5.65;;;4.00;;
76978;SDS011;65911;47.502;19.148;2023-11-19T00:27:08;7.93;;;4.30;;
76978;SDS011;65911;47.502;19.148;2023-11-19T00:30:12;9.70;;;5.22;;
76978;SDS011;65911;47.502;19.148;2023-11-19T00:33:15;11.07;;;5.82;;
76978;SDS011;65911;47.502;19.148;2023-11-19T00:36:18;9.20;;;5.47;;
76978;SDS011;65911;47.502;19.148;2023-11-19T00:39:20;10.93;;;5.70;;
76978;SDS011;65911;47.502;19.148;2023-11-19T00:42:23;9.43;;;5.40;;
76978;SDS011;65911;47.502;19.148;2023-11-19T00:45:26;10.10;;;5.85;;
76978;SDS011;65911;47.502;19.148;2023-11-19T00:48:29;12.32;;;5.97;;
76978;SDS011;65911;47.502;19.148;2023-11-19T00:51:31;9.75;;;5.82;;
76978;SDS011;65911;47.502;19.148;2023-11-19T00:54:33;12.95;;;6.80;;
76978;SDS011;65911;47.502;19.148;2023-11-19T00:57:35;12.47;;;6.40;;
76978;SDS011;65911;47.502;19.148;2023-11-19T01:00:38;11.68;;;6.18;;
76978;SDS011;65911;47.502;19.148;2023-11-19T01:03:40;11.90;;;6.43;;
76978;SDS011;65911;47.502;19.148;2023-11-19T01:06:43;14.83;;;6.30;;
76978;SDS011;65911;47.502;19.148;2023-11-19T01:09:48;10.57;;;5.90;;
76978;SDS011;65911;47.502;19.148;2023-11-19T01:12:50;12.43;;;6.20;;
76978;SDS011;65911;47.502;19.148;2023-11-19T01:15:52;13.98;;;7.32;;
76978;SDS011;65911;47.502;19.148;2023-11-19T01:18:55;13.43;;;7.15;;
76978;SDS011;65911;47.502;19.148;2023-11-19T01:22:13;17.02;;;7.80;;
76978;SDS011;65911;47.502;19.148;2023-11-19T01:25:15;16.70;;;7.68;;
76978;SDS011;65911;47.502;19.148;2023-11-19T01:28:17;15.57;;;7.37;;
76978;SDS011;65911;47.502;19.148;2023-11-19T01:31:21;15.45;;;7.45;;
76978;SDS011;65911;47.502;19.148;2023-11-19T01:34:23;15.80;;;7.95;;
76978;SDS011;65911;47.502;19.148;2023-11-19T01:37:25;13.20;;;6.80;;
76978;SDS011;65911;47.502;19.148;2023-11-19T01:40:28;14.25;;;6.93;;
76978;SDS011;65911;47.502;19.148;2023-11-19T01:46:36;16.17;;;6.63;;
76978;SDS011;65911;47.502;19.148;2023-11-19T01:49:38;13.93;;;7.18;;
76978;SDS011;65911;47.502;19.148;2023-11-19T01:52:40;15.70;;;7.03;;
76978;SDS011;65911;47.502;19.148;2023-11-19T01:55:43;16.67;;;7.82;;
76978;SDS011;65911;47.502;19.148;2023-11-19T01:58:45;17.80;;;7.20;;
76978;SDS011;65911;47.502;19.148;2023-11-19T02:01:48;15.52;;;7.28;;
76978;SDS011;65911;47.502;19.148;2023-11-19T02:05:00;14.45;;;6.80;;
76978;SDS011;65911;47.502;19.148;2023-11-19T02:08:02;15.13;;;7.03;;
76978;SDS011;65911;47.502;19.148;2023-11-19T02:11:05;15.80;;;6.95;;
76978;SDS011;65911;47.502;19.148;2023-11-19T02:14:09;13.88;;;7.18;;
76978;SDS011;65911;47.502;19.148;2023-11-19T02:17:33;15.30;;;7.38;;
76978;SDS011;65911;47.502;19.148;2023-11-19T02:20:34;16.00;;;7.55;;
76978;SDS011;65911;47.502;19.148;2023-11-19T02:23:36;18.98;;;7.72;;
76978;SDS011;65911;47.502;19.148;2023-11-19T02:26:52;17.83;;;7.18;;
76978;SDS011;65911;47.502;19.148;2023-11-19T02:30:00;15.87;;;7.23;;
76978;SDS011;65911;47.502;19.148;2023-11-19T02:33:03;16.52;;;7.55;;
76978;SDS011;65911;47.502;19.148;2023-11-19T02:36:07;18.88;;;7.57;;
76978;SDS011;65911;47.502;19.148;2023-11-19T02:39:10;18.87;;;8.43;;
76978;SDS011;65911;47.502;19.148;2023-11-19T02:42:14;19.05;;;7.78;;
76978;SDS011;65911;47.502;19.148;2023-11-19T02:45:17;16.00;;;7.50;;
76978;SDS011;65911;47.502;19.148;2023-11-19T02:48:20;16.15;;;8.07;;
76978;SDS011;65911;47.502;19.148;2023-11-19T02:51:22;16.60;;;7.72;;
76978;SDS011;65911;47.502;19.148;2023-11-19T02:54:25;18.08;;;8.68;;
76978;SDS011;65911;47.502;19.148;2023-11-19T02:57:32;19.40;;;8.05;;
76978;SDS011;65911;47.502;19.148;2023-11-19T03:00:34;17.20;;;7.97;;
76978;SDS011;65911;47.502;19.148;2023-11-19T03:03:38;16.45;;;8.02;;
76978;SDS011;65911;47.502;19.148;2023-11-19T03:06:42;15.63;;;7.63;;
76978;SDS011;65911;47.502;19.148;2023-11-19T03:09:44;17.93;;;8.43;;
76978;SDS011;65911;47.502;19.148;2023-11-19T03:12:46;19.30;;;9.18;;
76978;SDS011;65911;47.502;19.148;2023-11-19T03:15:49;15.52;;;7.53;;
76978;SDS011;65911;47.502;19.148;2023-11-19T03:18:51;17.95;;;8.30;;
76978;SDS011;65911;47.502;19.148;2023-11-19T03:21:54;15.70;;;8.98;;
76978;SDS011;65911;47.502;19.148;2023-11-19T03:24:56;18.63;;;8.25;;
76978;SDS011;65911;47.502;19.148;2023-11-19T03:27:59;20.95;;;8.32;;
76978;SDS011;65911;47.502;19.148;2023-11-19T03:31:05;20.73;;;8.50;;
76978;SDS011;65911;47.502;19.148;2023-11-19T03:34:10;17.33;;;8.00;;
76978;SDS011;65911;47.502;19.148;2023-11-19T03:37:13;17.48;;;8.45;;
76978;SDS011;65911;47.502;19.148;2023-11-19T03:40:19;15.87;;;8.30;;
76978;SDS011;65911;47.502;19.148;2023-11-19T03:43:22;15.63;;;7.95;;
76978;SDS011;65911;47.502;19.148;2023-11-19T03:46:24;18.58;;;8.40;;
76978;SDS011;65911;47.502;19.148;2023-11-19T03:49:26;17.85;;;8.52;;
76978;SDS011;65911;47.502;19.148;2023-11-19T03:52:28;17.17;;;8.65;;
76978;SDS011;65911;47.502;19.148;2023-11-19T03:55:31;16.48;;;8.73;;
76978;SDS011;65911;47.502;19.148;2023-11-19T03:58:34;17.52;;;8.50;;
76978;SDS011;65911;47.502;19.148;2023-11-19T04:01:37;17.30;;;8.53;;
76978;SDS011;65911;47.502;19.148;2023-11-19T04:04:40;18.27;;;8.93;;
76978;SDS011;65911;47.502;19.148;2023-11-19T04:07:42;16.65;;;8.40;;
76978;SDS011;65911;47.502;19.148;2023-11-19T04:10:44;19.40;;;8.83;;
76978;SDS011;65911;47.502;19.148;2023-11-19T04:13:47;17.45;;;8.73;;
76978;SDS011;65911;47.502;19.148;2023-11-19T04:16:49;19.90;;;8.77;;
76978;SDS011;65911;47.502;19.148;2023-11-19T04:19:51;18.75;;;9.25;;
76978;SDS011;65911;47.502;19.148;2023-11-19T04:22:53;16.02;;;8.43;;
76978;SDS011;65911;47.502;19.148;2023-11-19T04:25:56;17.88;;;8.88;;
76978;SDS011;65911;47.502;19.148;2023-11-19T04:29:12;16.75;;;8.63;;
76978;SDS011;65911;47.502;19.148;2023-11-19T04:32:15;15.03;;;7.97;;
76978;SDS011;65911;47.502;19.148;2023-11-19T04:35:17;16.33;;;8.55;;
76978;SDS011;65911;47.502;19.148;2023-11-19T04:38:20;16.52;;;8.27;;
76978;SDS011;65911;47.502;19.148;2023-11-19T04:41:23;17.10;;;8.13;;
76978;SDS011;65911;47.502;19.148;2023-11-19T04:44:25;17.45;;;8.88;;
76978;SDS011;65911;47.502;19.148;2023-11-19T04:47:27;16.25;;;8.10;;
76978;SDS011;65911;47.502;19.148;2023-11-19T04:50:29;18.10;;;8.52;;
76978;SDS011;65911;47.502;19.148;2023-11-19T04:53:32;13.57;;;7.57;;
76978;SDS011;65911;47.502;19.148;2023-11-19T04:56:35;16.90;;;7.97;;
76978;SDS011;65911;47.502;19.148;2023-11-19T04:59:40;15.32;;;8.20;;
76978;SDS011;65911;47.502;19.148;2023-11-19T05:02:43;14.97;;;7.57;;
76978;SDS011;65911;47.502;19.148;2023-11-19T05:05:46;18.27;;;8.57;;
76978;SDS011;65911;47.502;19.148;2023-11-19T05:08:48;15.15;;;8.05;;
76978;SDS011;65911;47.502;19.148;2023-11-19T05:11:50;16.97;;;8.50;;
76978;SDS011;65911;47.502;19.148;2023-11-19T05:14:53;16.45;;;8.30;;
76978;SDS011;65911;47.502;19.148;2023-11-19T05:17:55;15.50;;;7.90;;
76978;SDS011;65911;47.502;19.148;2023-11-19T05:20:57;14.43;;;7.82;;
76978;SDS011;65911;47.502;19.148;2023-11-19T05:24:00;13.93;;;8.40;;
76978;SDS011;65911;47.502;19.148;2023-11-19T05:27:02;15.90;;;8.55;;
76978;SDS011;65911;47.502;19.148;2023-11-19T05:30:05;18.55;;;8.45;;
76978;SDS011;65911;47.502;19.148;2023-11-19T05:33:11;16.40;;;8.50;;
76978;SDS011;65911;47.502;19.148;2023-11-19T05:36:13;18.98;;;8.45;;
76978;SDS011;65911;47.502;19.148;2023-11-19T05:39:15;18.88;;;9.02;;
76978;SDS011;65911;47.502;19.148;2023-11-19T05:42:18;16.30;;;8.93;;
76978;SDS011;65911;47.502;19.148;2023-11-19T05:45:20;19.80;;;9.73;;
76978;SDS011;65911;47.502;19.148;2023-11-19T05:48:24;21.00;;;9.48;;
76978;SDS011;65911;47.502;19.148;2023-11-19T05:51:27;19.65;;;9.85;;
76978;SDS011;65911;47.502;19.148;2023-11-19T05:54:30;17.30;;;8.95;;
76978;SDS011;65911;47.502;19.148;2023-11-19T05:57:33;22.65;;;9.38;;
76978;SDS011;65911;47.502;19.148;2023-11-19T06:00:48;23.13;;;10.10;;
76978;SDS011;65911;47.502;19.148;2023-11-19T06:03:50;20.07;;;9.23;;
76978;SDS011;65911;47.502;19.148;2023-11-19T06:06:52;25.15;;;9.65;;
76978;SDS011;65911;47.502;19.148;2023-11-19T06:09:56;20.13;;;9.73;;
76978;SDS011;65911;47.502;19.148;2023-11-19T06:12:59;20.80;;;9.93;;
76978;SDS011;65911;47.502;19.148;2023-11-19T06:16:01;20.88;;;10.20;;
76978;SDS011;65911;47.502;19.148;2023-11-19T06:19:07;20.17;;;10.45;;
76978;SDS011;65911;47.502;19.148;2023-11-19T06:22:10;19.67;;;10.23;;
76978;SDS011;65911;47.502;19.148;2023-11-19T06:25:12;20.50;;;10.75;;
76978;SDS011;65911;47.502;19.148;2023-11-19T06:28:16;20.60;;;11.07;;
76978;SDS011;65911;47.502;19.148;2023-11-19T06:31:18;18.40;;;9.43;;
76978;SDS011;65911;47.502;19.148;2023-11-19T06:34:21;17.07;;;9.13;;
76978;SDS011;65911;47.502;19.148;2023-11-19T06:37:23;16.50;;;8.57;;
76978;SDS011;65911;47.502;19.148;2023-11-19T06:40:25;17.67;;;8.55;;
76978;SDS011;65911;47.502;19.148;2023-11-19T06:43:28;19.27;;;8.37;;
76978;SDS011;65911;47.502;19.148;2023-11-19T06:46:43;23.05;;;9.23;;
76978;SDS011;65911;47.502;19.148;2023-11-19T06:49:45;16.15;;;8.43;;
76978;SDS011;65911;47.502;19.148;2023-11-19T06:52:47;18.88;;;9.20;;
76978;SDS011;65911;47.502;19.148;2023-11-19T06:55:50;19.08;;;9.20;;
76978;SDS011;65911;47.502;19.148;2023-11-19T06:58:52;16.42;;;8.90;;
76978;SDS011;65911;47.502;19.148;2023-11-19T07:01:55;16.60;;;8.90;;
76978;SDS011;65911;47.502;19.148;2023-11-19T07:04:58;20.23;;;8.60;;
76978;SDS011;65911;47.502;19.148;2023-11-19T07:08:00;19.00;;;7.80;;
76978;SDS011;65911;47.502;19.148;2023-11-19T07:11:03;16.60;;;8.82;;
76978;SDS011;65911;47.502;19.148;2023-11-19T07:14:06;13.87;;;7.67;;
76978;SDS011;65911;47.502;19.148;2023-11-19T07:17:09;14.30;;;7.22;;
76978;SDS011;65911;47.502;19.148;2023-11-19T07:20:12;14.18;;;7.78;;
76978;SDS011;65911;47.502;19.148;2023-11-19T07:23:17;17.33;;;7.03;;
76978;SDS011;65911;47.502;19.148;2023-11-19T07:26:19;15.88;;;8.23;;
76978;SDS011;65911;47.502;19.148;2023-11-19T07:29:22;20.40;;;8.10;;
76978;SDS011;65911;47.502;19.148;2023-11-19T07:32:27;15.38;;;8.00;;
76978;SDS011;65911;47.502;19.148;2023-11-19T07:35:29;16.57;;;7.37;;
76978;SDS011;65911;47.502;19.148;2023-11-19T07:38:35;14.77;;;7.82;;
76978;SDS011;65911;47.502;19.148;2023-11-19T07:41:37;14.05;;;7.80;;
76978;SDS011;65911;47.502;19.148;2023-11-19T07:44:40;17.77;;;8.37;;
76978;SDS011;65911;47.502;19.148;2023-11-19T07:47:43;15.98;;;7.97;;
76978;SDS011;65911;47.502;19.148;2023-11-19T07:50:49;16.58;;;8.82;;
76978;SDS011;65911;47.502;19.148;2023-11-19T07:53:54;17.73;;;7.93;;
76978;SDS011;65911;47.502;19.148;2023-11-19T07:56:56;15.98;;;8.02;;
76978;SDS011;65911;47.502;19.148;2023-11-19T07:59:59;14.20;;;7.93;;
76978;SDS011;65911;47.502;19.148;2023-11-19T08:03:02;15.23;;;8.07;;
76978;SDS011;65911;47.502;19.148;2023-11-19T08:06:06;19.57;;;8.80;;
76978;SDS011;65911;47.502;19.148;2023-11-19T08:09:08;15.10;;;7.80;;
76978;SDS011;65911;47.502;19.148;2023-11-19T08:12:15;13.88;;;7.70;;
76978;SDS011;65911;47.502;19.148;2023-11-19T08:15:19;14.77;;;7.90;;
76978;SDS011;65911;47.502;19.148;2023-11-19T08:18:24;14.57;;;7.68;;
76978;SDS011;65911;47.502;19.148;2023-11-19T08:21:26;16.23;;;7.43;;
76978;SDS011;65911;47.502;19.148;2023-11-19T08:24:29;17.45;;;7.90;;
76978;SDS011;65911;47.502;19.148;2023-11-19T08:27:31;27.30;;;8.35;;
76978;SDS011;65911;47.502;19.148;2023-11-19T08:30:34;19.60;;;7.88;;
76978;SDS011;65911;47.502;19.148;2023-11-19T08:33:36;22.20;;;8.27;;
76978;SDS011;65911;47.502;19.148;2023-11-19T08:36:39;17.73;;;8.13;;
76978;SDS011;65911;47.502;19.148;2023-11-19T08:39:41;19.02;;;8.05;;
76978;SDS011;65911;47.502;19.148;2023-11-19T08:42:44;17.48;;;8.70;;
76978;SDS011;65911;47.502;19.148;2023-11-19T08:45:46;17.37;;;8.30;;
76978;SDS011;65911;47.502;19.148;2023-11-19T08:48:48;18.17;;;8.48;;
76978;SDS011;65911;47.502;19.148;2023-11-19T08:51:51;16.40;;;8.48;;
76978;SDS011;65911;47.502;19.148;2023-11-19T08:54:53;19.05;;;8.50;;
76978;SDS011;65911;47.502;19.148;2023-11-19T08:57:55;18.10;;;7.90;;
76978;SDS011;65911;47.502;19.148;2023-11-19T09:00:58;17.35;;;7.97;;
76978;SDS011;65911;47.502;19.148;2023-11-19T09:04:01;10.70;;;6.82;;
76978;SDS011;65911;47.502;19.148;2023-11-19T09:07:03;17.67;;;7.33;;
76978;SDS011;65911;47.502;19.148;2023-11-19T09:10:06;14.48;;;6.80;;
76978;SDS011;65911;47.502;19.148;2023-11-19T09:13:10;17.33;;;7.30;;
76978;SDS011;65911;47.502;19.148;2023-11-19T09:16:12;13.73;;;6.77;;
76978;SDS011;65911;47.502;19.148;2023-11-19T09:19:15;14.20;;;6.95;;
76978;SDS011;65911;47.502;19.148;2023-11-19T09:22:17;12.68;;;6.32;;
76978;SDS011;65911;47.502;19.148;2023-11-19T09:25:19;13.93;;;7.05;;
76978;SDS011;65911;47.502;19.148;2023-11-19T09:28:21;14.55;;;6.75;;
76978;SDS011;65911;47.502;19.148;2023-11-19T09:31:24;10.98;;;6.22;;
76978;SDS011;65911;47.502;19.148;2023-11-19T09:34:26;11.38;;;5.80;;
76978;SDS011;65911;47.502;19.148;2023-11-19T09:37:29;13.50;;;6.50;;
76978;SDS011;65911;47.502;19.148;2023-11-19T09:40:32;13.73;;;6.22;;
76978;SDS011;65911;47.502;19.148;2023-11-19T09:43:34;10.45;;;6.00;;
76978;SDS011;65911;47.502;19.148;2023-11-19T09:46:41;11.00;;;6.40;;
76978;SDS011;65911;47.502;19.148;2023-11-19T09:49:43;10.68;;;5.90;;
76978;SDS011;65911;47.502;19.148;2023-11-19T09:52:46;13.23;;;6.70;;
76978;SDS011;65911;47.502;19.148;2023-11-19T09:55:49;12.07;;;6.85;;
76978;SDS011;65911;47.502;19.148;2023-11-19T09:58:51;8.10;;;5.85;;
76978;SDS011;65911;47.502;19.148;2023-11-19T10:01:54;11.20;;;6.80;;
76978;SDS011;65911;47.502;19.148;2023-11-19T10:04:56;9.85;;;6.55;;
76978;SDS011;65911;47.502;19.148;2023-11-19T10:07:59;13.90;;;5.93;;
76978;SDS011;65911;47.502;19.148;2023-11-19T10:11:03;29.50;;;7.53;;
76978;SDS011;65911;47.502;19.148;2023-11-19T10:14:06;15.75;;;6.30;;
76978;SDS011;65911;47.502;19.148;2023-11-19T10:17:09;18.37;;;6.77;;
76978;SDS011;65911;47.502;19.148;2023-11-19T10:20:11;14.07;;;6.30;;
76978;SDS011;65911;47.502;19.148;2023-11-19T10:23:13;10.73;;;6.20;;
76978;SDS011;65911;47.502;19.148;2023-11-19T10:26:16;13.45;;;6.43;;
76978;SDS011;65911;47.502;19.148;2023-11-19T10:29:18;11.52;;;6.60;;
76978;SDS011;65911;47.502;19.148;2023-11-19T10:32:21;13.35;;;6.18;;
76978;SDS011;65911;47.502;19.148;2023-11-19T10:35:28;10.57;;;6.00;;
76978;SDS011;65911;47.502;19.148;2023-11-19T10:38:30;10.87;;;5.87;;
76978;SDS011;65911;47.502;19.148;2023-11-19T10:41:33;15.45;;;6.07;;
76978;SDS011;65911;47.502;19.148;2023-11-19T10:44:35;11.55;;;6.22;;
76978;SDS011;65911;47.502;19.148;2023-11-19T10:47:38;10.30;;;6.10;;
76978;SDS011;65911;47.502;19.148;2023-11-19T10:50:44;11.38;;;6.18;;
76978;SDS011;65911;47.502;19.148;2023-11-19T10:53:48;9.25;;;5.60;;
76978;SDS011;65911;47.502;19.148;2023-11-19T10:56:58;11.65;;;6.15;;
76978;SDS011;65911;47.502;19.148;2023-11-19T11:00:01;12.32;;;6.97;;
76978;SDS011;65911;47.502;19.148;2023-11-19T11:03:18;11.02;;;6.03;;
76978;SDS011;65911;47.502;19.148;2023-11-19T11:06:22;10.73;;;6.65;;
76978;SDS011;65911;47.502;19.148;2023-11-19T11:09:28;10.20;;;6.10;;
76978;SDS011;65911;47.502;19.148;2023-11-19T11:12:31;10.88;;;6.22;;
76978;SDS011;65911;47.502;19.148;2023-11-19T11:15:40;11.32;;;6.03;;
76978;SDS011;65911;47.502;19.148;2023-11-19T11:18:45;10.27;;;6.40;;
76978;SDS011;65911;47.502;19.148;2023-11-19T11:21:52;10.35;;;6.18;;
76978;SDS011;65911;47.502;19.148;2023-11-19T11:25:19;10.68;;;5.97;;
76978;SDS011;65911;47.502;19.148;2023-11-19T11:35:27;10.30;;;6.28;;
76978;SDS011;65911;47.502;19.148;2023-11-19T11:38:36;11.20;;;6.35;;
76978;SDS011;65911;47.502;19.148;2023-11-19T11:41:43;10.97;;;6.90;;
76978;SDS011;65911;47.502;19.148;2023-11-19T11:48:12;13.00;;;6.88;;
76978;SDS011;65911;47.502;19.148;2023-11-19T11:51:16;15.27;;;8.10;;
76978;SDS011;65911;47.502;19.148;2023-11-19T11:57:21;13.82;;;7.45;;
76978;SDS011;65911;47.502;19.148;2023-11-19T12:00:32;12.50;;;7.00;;
76978;SDS011;65911;47.502;19.148;2023-11-19T12:03:36;11.65;;;7.25;;
76978;SDS011;65911;47.502;19.148;2023-11-19T12:06:39;11.63;;;7.95;;
76978;SDS011;65911;47.502;19.148;2023-11-19T12:09:42;11.38;;;7.28;;
76978;SDS011;65911;47.502;19.148;2023-11-19T12:12:46;12.53;;;6.93;;
76978;SDS011;65911;47.502;19.148;2023-11-19T12:19:02;11.80;;;7.30;;
76978;SDS011;65911;47.502;19.148;2023-11-19T12:22:10;15.00;;;7.17;;
76978;SDS011;65911;47.502;19.148;2023-11-19T12:25:13;11.90;;;7.13;;
76978;SDS011;65911;47.502;19.148;2023-11-19T12:28:15;12.32;;;7.25;;
76978;SDS011;65911;47.502;19.148;2023-11-19T12:31:19;12.23;;;7.38;;
76978;SDS011;65911;47.502;19.148;2023-11-19T12:34:21;12.40;;;7.43;;
76978;SDS011;65911;47.502;19.148;2023-11-19T12:37:26;10.70;;;6.53;;
76978;SDS011;65911;47.502;19.148;2023-11-19T12:40:29;11.48;;;6.60;;
76978;SDS011;65911;47.502;19.148;2023-11-19T12:43:31;10.70;;;6.17;;
76978;SDS011;65911;47.502;19.148;2023-11-19T12:46:33;11.65;;;6.28;;
76978;SDS011;65911;47.502;19.148;2023-11-19T12:49:36;11.30;;;5.55;;
76978;SDS011;65911;47.502;19.148;2023-11-19T12:52:38;11.13;;;6.00;;
76978;SDS011;65911;47.502;19.148;2023-11-19T12:55:41;8.45;;;5.30;;
76978;SDS011;65911;47.502;19.148;2023-11-19T12:58:43;9.25;;;5.93;;
76978;SDS011;65911;47.502;19.148;2023-11-19T13:01:56;9.30;;;5.72;;
76978;SDS011;65911;47.502;19.148;2023-11-19T13:04:59;11.40;;;6.05;;
76978;SDS011;65911;47.502;19.148;2023-11-19T13:08:28;13.63;;;6.10;;
76978;SDS011;65911;47.502;19.148;2023-11-19T13:11:31;10.15;;;5.68;;
76978;SDS011;65911;47.502;19.148;2023-11-19T13:14:36;13.40;;;6.13;;
76978;SDS011;65911;47.502;19.148;2023-11-19T13:17:41;8.82;;;5.90;;
76978;SDS011;65911;47.502;19.148;2023-11-19T13:20:43;11.48;;;6.20;;
76978;SDS011;65911;47.502;19.148;2023-11-19T13:23:46;9.43;;;5.40;;
76978;SDS011;65911;47.502;19.148;2023-11-19T13:26:48;10.85;;;6.18;;
76978;SDS011;65911;47.502;19.148;2023-11-19T13:29:50;11.02;;;5.55;;
76978;SDS011;65911;47.502;19.148;2023-11-19T13:32:53;9.82;;;5.47;;
76978;SDS011;65911;47.502;19.148;2023-11-19T13:35:57;11.90;;;5.82;;
76978;SDS011;65911;47.502;19.148;2023-11-19T13:38:59;9.63;;;5.97;;
76978;SDS011;65911;47.502;19.148;2023-11-19T13:42:03;10.18;;;5.90;;
76978;SDS011;65911;47.502;19.148;2023-11-19T13:45:09;9.53;;;5.40;;
76978;SDS011;65911;47.502;19.148;2023-11-19T13:48:13;7.53;;;4.78;;
76978;SDS011;65911;47.502;19.148;2023-11-19T13:51:15;7.97;;;4.80;;
76978;SDS011;65911;47.502;19.148;2023-11-19T13:54:18;9.07;;;5.03;;
76978;SDS011;65911;47.502;19.148;2023-11-19T13:57:22;8.65;;;4.70;;
76978;SDS011;65911;47.502;19.148;2023-11-19T14:00:24;7.45;;;4.50;;
76978;SDS011;65911;47.502;19.148;2023-11-19T14:03:26;6.90;;;3.95;;
76978;SDS011;65911;47.502;19.148;2023-11-19T14:06:29;7.10;;;4.38;;
76978;SDS011;65911;47.502;19.148;2023-11-19T14:09:31;10.13;;;4.25;;
76978;SDS011;65911;47.502;19.148;2023-11-19T14:12:34;6.50;;;3.88;;
76978;SDS011;65911;47.502;19.148;2023-11-19T14:15:37;5.50;;;4.13;;
76978;SDS011;65911;47.502;19.148;2023-11-19T14:18:40;7.28;;;4.50;;
76978;SDS011;65911;47.502;19.148;2023-11-19T14:21:45;8.38;;;4.10;;
76978;SDS011;65911;47.502;19.148;2023-11-19T14:24:47;6.53;;;4.10;;
76978;SDS011;65911;47.502;19.148;2023-11-19T14:27:49;7.40;;;4.25;;
76978;SDS011;65911;47.502;19.148;2023-11-19T14:30:52;8.07;;;4.35;;
76978;SDS011;65911;47.502;19.148;2023-11-19T14:33:59;6.82;;;4.22;;
76978;SDS011;65911;47.502;19.148;2023-11-19T14:37:01;7.55;;;4.13;;
76978;SDS011;65911;47.502;19.148;2023-11-19T14:40:04;7.18;;;4.90;;
76978;SDS011;65911;47.502;19.148;2023-11-19T14:43:07;5.45;;;4.07;;
76978;SDS011;65911;47.502;19.148;2023-11-19T14:46:12;6.20;;;3.93;;
76978;SDS011;65911;47.502;19.148;2023-11-19T14:49:15;7.25;;;4.03;;
76978;SDS011;65911;47.502;19.148;2023-11-19T14:52:18;9.48;;;3.92;;
76978;SDS011;65911;47.502;19.148;2023-11-19T14:55:20;5.97;;;3.97;;
76978;SDS011;65911;47.502;19.148;2023-11-19T14:58:22;5.32;;;3.45;;
76978;SDS011;65911;47.502;19.148;2023-11-19T15:01:24;5.50;;;3.75;;
76978;SDS011;65911;47.502;19.148;2023-11-19T15:04:27;7.25;;;3.65;;
76978;SDS011;65911;47.502;19.148;2023-11-19T15:07:29;7.15;;;4.10;;
76978;SDS011;65911;47.502;19.148;2023-11-19T15:10:31;5.32;;;3.63;;
76978;SDS011;65911;47.502;19.148;2023-11-19T15:13:34;6.45;;;3.95;;
76978;SDS011;65911;47.502;19.148;2023-11-19T15:16:38;6.13;;;4.10;;
76978;SDS011;65911;47.502;19.148;2023-11-19T15:19:41;6.90;;;4.63;;
76978;SDS011;65911;47.502;19.148;2023-11-19T15:22:44;7.47;;;4.10;;
76978;SDS011;65911;47.502;19.148;2023-11-19T15:25:46;7.73;;;4.07;;
76978;SDS011;65911;47.502;19.148;2023-11-19T15:28:48;8.20;;;4.40;;
76978;SDS011;65911;47.502;19.148;2023-11-19T15:31:51;7.05;;;4.70;;
76978;SDS011;65911;47.502;19.148;2023-11-19T15:34:53;11.80;;;5.38;;
76978;SDS011;65911;47.502;19.148;2023-11-19T15:37:55;7.75;;;4.88;;
76978;SDS011;65911;47.502;19.148;2023-11-19T15:40:58;8.32;;;4.63;;
76978;SDS011;65911;47.502;19.148;2023-11-19T15:44:00;9.18;;;5.13;;
76978;SDS011;65911;47.502;19.148;2023-11-19T15:47:05;7.00;;;4.57;;
76978;SDS011;65911;47.502;19.148;2023-11-19T15:50:07;8.20;;;4.85;;
76978;SDS011;65911;47.502;19.148;2023-11-19T15:53:12;8.13;;;4.35;;
76978;SDS011;65911;47.502;19.148;2023-11-19T15:56:14;10.73;;;5.73;;
76978;SDS011;65911;47.502;19.148;2023-11-19T15:59:17;9.13;;;5.72;;
76978;SDS011;65911;47.502;19.148;2023-11-19T16:02:19;7.55;;;5.13;;
76978;SDS011;65911;47.502;19.148;2023-11-19T16:05:22;10.80;;;4.93;;
76978;SDS011;65911;47.502;19.148;2023-11-19T16:08:29;10.00;;;5.18;;
76978;SDS011;65911;47.502;19.148;2023-11-19T16:11:31;8.50;;;5.05;;
76978;SDS011;65911;47.502;19.148;2023-11-19T16:14:48;10.10;;;5.38;;
76978;SDS011;65911;47.502;19.148;2023-11-19T16:17:51;9.47;;;5.20;;
76978;SDS011;65911;47.502;19.148;2023-11-19T16:21:00;7.68;;;5.20;;
76978;SDS011;65911;47.502;19.148;2023-11-19T16:24:03;8.50;;;5.32;;
76978;SDS011;65911;47.502;19.148;2023-11-19T16:27:06;8.67;;;5.97;;
76978;SDS011;65911;47.502;19.148;2023-11-19T16:30:29;9.32;;;5.63;;
76978;SDS011;65911;47.502;19.148;2023-11-19T16:33:31;9.65;;;6.18;;
76978;SDS011;65911;47.502;19.148;2023-11-19T16:36:36;10.35;;;5.57;;
76978;SDS011;65911;47.502;19.148;2023-11-19T16:39:39;8.77;;;5.47;;
76978;SDS011;65911;47.502;19.148;2023-11-19T16:42:44;10.43;;;5.55;;
76978;SDS011;65911;47.502;19.148;2023-11-19T16:45:50;8.82;;;5.55;;
76978;SDS011;65911;47.502;19.148;2023-11-19T16:48:53;9.67;;;5.90;;
76978;SDS011;65911;47.502;19.148;2023-11-19T16:51:55;9.73;;;5.80;;
76978;SDS011;65911;47.502;19.148;2023-11-19T16:54:58;8.23;;;5.10;;
76978;SDS011;65911;47.502;19.148;2023-11-19T16:58:00;10.63;;;6.13;;
76978;SDS011;65911;47.502;19.148;2023-11-19T17:01:04;11.40;;;6.68;;
76978;SDS011;65911;47.502;19.148;2023-11-19T17:04:06;9.65;;;6.07;;
76978;SDS011;65911;47.502;19.148;2023-11-19T17:07:10;10.30;;;6.28;;
76978;SDS011;65911;47.502;19.148;2023-11-19T17:10:12;10.40;;;6.07;;
76978;SDS011;65911;47.502;19.148;2023-11-19T17:13:14;12.40;;;6.90;;
76978;SDS011;65911;47.502;19.148;2023-11-19T17:16:17;11.85;;;6.50;;
76978;SDS011;65911;47.502;19.148;2023-11-19T17:19:19;12.40;;;6.67;;
76978;SDS011;65911;47.502;19.148;2023-11-19T17:22:23;12.98;;;7.05;;
76978;SDS011;65911;47.502;19.148;2023-11-19T17:25:25;12.85;;;6.82;;
76978;SDS011;65911;47.502;19.148;2023-11-19T17:28:27;13.83;;;6.93;;
76978;SDS011;65911;47.502;19.148;2023-11-19T17:31:33;11.07;;;6.95;;
76978;SDS011;65911;47.502;19.148;2023-11-19T17:34:36;10.90;;;6.70;;
76978;SDS011;65911;47.502;19.148;2023-11-19T17:37:38;14.73;;;7.10;;
76978;SDS011;65911;47.502;19.148;2023-11-19T17:40:41;13.98;;;7.40;;
76978;SDS011;65911;47.502;19.148;2023-11-19T17:43:44;12.07;;;7.05;;
76978;SDS011;65911;47.502;19.148;2023-11-19T17:46:46;12.70;;;7.10;;
76978;SDS011;65911;47.502;19.148;2023-11-19T17:49:49;12.77;;;6.53;;
76978;SDS011;65911;47.502;19.148;2023-11-19T17:52:51;12.90;;;7.20;;
76978;SDS011;65911;47.502;19.148;2023-11-19T17:55:53;13.55;;;7.45;;
76978;SDS011;65911;47.502;19.148;2023-11-19T17:58:56;12.60;;;7.20;;
76978;SDS011;65911;47.502;19.148;2023-11-19T18:01:59;12.05;;;7.07;;
76978;SDS011;65911;47.502;19.148;2023-11-19T18:05:04;10.38;;;6.47;;
76978;SDS011;65911;47.502;19.148;2023-11-19T18:08:07;10.95;;;6.95;;
76978;SDS011;65911;47.502;19.148;2023-11-19T18:11:13;12.27;;;7.10;;
76978;SDS011;65911;47.502;19.148;2023-11-19T18:14:24;13.20;;;6.72;;
76978;SDS011;65911;47.502;19.148;2023-11-19T18:17:26;13.88;;;7.55;;